Time,TemperatureF,DewpointF,PressureIn,WindDirection,WindDirectionDegrees,WindSpeedMPH,WindSpeedGustMPH,Humidity,HourlyPrecipIn,Conditions,Clouds,dailyrainin,SoftwareType,DateUTC
2016-09-30 00:05:00,78.0,-99.9,30.05,SSW,206,6.0,8.0,-999,-99.99,,,-99.99,,2016-09-30 04:05:00,
2016-09-30 00:24:00,80.0,-99.9,30.05,SSW,206,7.0,-999.0,-999,-99.99,,,-99.99,,2016-09-30 04:24:00,
2016-09-30 01:15:00,79.0,-99.9,30.04,SSW,198,7.0,-999.0,-999,-99.99,,,-99.99,,2016-09-30 05:15:00,
2016-09-30 01:51:00,79.0,-99.9,30.02,SW,217,4.0,6.0,-999,-99.99,,,-99.99,,2016-09-30 05:51:00,
2016-09-30 02:07:00,78.0,-99.9,30.02,SW,223,3.0,4.0,-999,-99.99,,,-99.99,,2016-09-30 06:07:00,
2016-09-30 02:15:00,78.0,-99.9,30.02,SW,223,3.0,4.0,-999,-99.99,,,-99.99,,2016-09-30 06:15:00,
2016-09-30 02:25:00,78.0,-99.9,30.01,SW,215,4.0,6.0,-999,-99.99,,,-99.99,,2016-09-30 06:25:00,
2016-09-30 02:40:00,79.0,-99.9,30.01,SSW,210,5.0,6.0,-999,-99.99,,,-99.99,,2016-09-30 06:40:00,
2016-09-30 02:49:00,79.0,-99.9,30.01,SSW,211,5.0,6.0,-999,-99.99,,,-99.99,,2016-09-30 06:49:00,
2016-09-30 02:58:00,79.0,-99.9,30.01,SSW,201,6.0,7.0,-999,-99.99,,,-99.99,,2016-09-30 06:58:00,
2016-09-30 03:10:00,79.0,-99.9,30.01,SSW,202,5.0,7.0,-999,-99.99,,,-99.99,,2016-09-30 07:10:00,
2016-09-30 03:18:00,79.0,-99.9,30.01,SSW,202,5.0,7.0,-999,-99.99,,,-99.99,,2016-09-30 07:18:00,
2016-09-30 03:27:00,79.0,-99.9,30.00,SSE,164,9.0,-999.0,-999,-99.99,,,-99.99,,2016-09-30 07:27:00,
2016-09-30 03:39:00,79.0,-99.9,30.00,South,178,9.0,12.0,-999,-99.99,,,-99.99,,2016-09-30 07:39:00,
2016-09-30 03:48:00,79.0,-99.9,30.00,South,178,9.0,12.0,-999,-99.99,,,-99.99,,2016-09-30 07:48:00,
2016-09-30 03:57:00,79.0,-99.9,29.99,South,180,6.0,9.0,-999,-99.99,,,-99.99,,2016-09-30 07:57:00,
2016-09-30 04:06:00,79.0,-99.9,29.99,SSW,199,6.0,-999.0,-999,-99.99,,,-99.99,,2016-09-30 08:06:00,
2016-09-30 04:15:00,79.0,-99.9,29.99,SSW,207,5.0,8.0,-999,-99.99,,,-99.99,,2016-09-30 08:15:00,
2016-09-30 04:24:00,79.0,-99.9,29.98,SSW,203,6.0,8.0,-999,-99.99,,,-99.99,,2016-09-30 08:24:00,
2016-09-30 04:34:00,78.0,-99.9,29.98,SW,224,4.0,6.0,-999,-99.99,,,-99.99,,2016-09-30 08:34:00,
2016-09-30 04:47:00,78.0,-99.9,29.98,SW,224,4.0,6.0,-999,-99.99,,,-99.99,,2016-09-30 08:47:00,
2016-09-30 04:57:00,78.0,-99.9,29.98,SSW,201,5.0,7.0,-999,-99.99,,,-99.99,,2016-09-30 08:57:00,
2016-09-30 05:13:00,80.0,-99.9,29.98,SSW,192,11.0,16.0,-999,-99.99,,,-99.99,,2016-09-30 09:13:00,
2016-09-30 05:58:00,79.0,-99.9,29.98,SSW,204,9.0,14.0,-999,-99.99,,,-99.99,,2016-09-30 09:58:00,
2016-09-30 06:05:00,79.0,-99.9,29.98,SSW,194,9.0,13.0,-999,-99.99,,,-99.99,,2016-09-30 10:05:00,
2016-09-30 06:15:00,79.0,-99.9,29.99,SSW,197,6.0,8.0,-999,-99.99,,,-99.99,,2016-09-30 10:15:00,
2016-09-30 06:27:00,79.0,-99.9,29.99,SSW,197,6.0,8.0,-999,-99.99,,,-99.99,,2016-09-30 10:27:00,
2016-09-30 06:35:00,79.0,-99.9,29.99,SSW,210,6.0,-999.0,-999,-99.99,,,-99.99,,2016-09-30 10:35:00,
2016-09-30 07:02:00,80.0,-99.9,29.99,South,179,11.0,-999.0,-999,-99.99,,,-99.99,,2016-09-30 11:02:00,
2016-09-30 07:07:00,80.0,-99.9,30.00,South,191,10.0,13.0,-999,-99.99,,,-99.99,,2016-09-30 11:07:00,
2016-09-30 07:16:00,79.0,-99.9,30.00,SSW,207,7.0,12.0,-999,-99.99,,,-99.99,,2016-09-30 11:16:00,
2016-09-30 07:25:00,78.0,-99.9,30.00,SW,218,5.0,-999.0,-999,-99.99,,,-99.99,,2016-09-30 11:25:00,
2016-09-30 08:08:00,79.0,-99.9,30.00,WSW,249,5.0,8.0,-999,-99.99,,,-99.99,,2016-09-30 12:08:00,
2016-09-30 08:16:00,78.0,-99.9,30.00,West,271,6.0,8.0,-999,-99.99,,,-99.99,,2016-09-30 12:16:00,
2016-09-30 08:26:00,78.0,-99.9,30.00,West,271,6.0,8.0,-999,-99.99,,,-99.99,,2016-09-30 12:26:00,
2016-09-30 08:57:00,81.0,-99.9,30.01,WSW,253,3.0,4.0,-999,-99.99,,,-99.99,,2016-09-30 12:57:00,
2016-09-30 09:07:00,82.0,-99.9,30.01,SW,227,4.0,5.0,-999,-99.99,,,-99.99,,2016-09-30 13:07:00,
2016-09-30 09:17:00,82.0,-99.9,30.01,SW,229,3.0,5.0,-999,-99.99,,,-99.99,,2016-09-30 13:17:00,
2016-09-30 09:37:00,82.0,-99.9,30.02,WSW,238,4.0,5.0,-999,-99.99,,,-99.99,,2016-09-30 13:37:00,
2016-09-30 10:07:00,85.0,-99.9,30.03,South,182,2.0,3.0,-999,-99.99,,,-99.99,,2016-09-30 14:07:00,
2016-09-30 10:14:00,83.0,-99.9,30.04,SW,218,4.0,7.0,-999,-99.99,,,-99.99,,2016-09-30 14:14:00,
2016-09-30 10:24:00,83.0,-99.9,30.04,SW,223,6.0,8.0,-999,-99.99,,,-99.99,,2016-09-30 14:24:00,
2016-09-30 10:35:00,83.0,-99.9,30.04,SW,234,4.0,7.0,-999,-99.99,,,-99.99,,2016-09-30 14:35:00,
2016-09-30 10:44:00,83.0,-99.9,30.04,SW,234,4.0,7.0,-999,-99.99,,,-99.99,,2016-09-30 14:44:00,
2016-09-30 10:55:00,84.0,-99.9,30.04,SW,216,7.0,9.0,-999,-99.99,,,-99.99,,2016-09-30 14:55:00,